Time;durP1;ratioP1;P1;durP2;ratioP2;P2;SDS_P1;SDS_P2;PMS_P1;PMS_P2;Temp;Humidity;BMP_temperature;BMP_pressure;BME280_temperature;BME280_humidity;BME280_pressure;Samples;Min_cycle;Max_cycle;Signal;HPM_P1;HPM_P2
2022/03/12 00:04:56;;;;;;;;;;;;;;;;;;;;;
2022/03/12 00:15:21;;;;;;;7.47;4.68;;;;;;;1.03;28.59;101677.72;4719443;30;20086;-75
2022/03/12 00:19:20;;;;;;;;;;;;;;;;;;;;;
2022/03/12 00:42:49;;;;;;;8.07;3.83;;;;;;;0.84;28.65;101680.91;4687863;30;20249;-74
2022/03/12 00:46:07;;;;;;;;;;;;;;;;;;;;;
2022/03/12 00:52:13;;;;;;;8.85;2.78;;;;;;;0.72;28.49;101683.31;5074512;22;20063;-80
2022/03/12 00:54:39;;;;;;;6.82;3.05;;;;;;;0.74;28.51;101699.63;5073279;28;20107;-81
2022/03/12 00:57:04;;;;;;;13.25;3.67;;;;;;;0.71;28.66;101681.59;5055217;28;20035;-78
2022/03/12 00:59:31;;;;;;;8.95;3.15;;;;;;;0.60;28.54;101684.88;5041560;28;20075;-78
2022/03/12 01:01:57;;;;;;;4.70;3.92;;;;;;;0.58;28.79;101677.97;5038477;28;20044;-79
2022/03/12 01:04:22;;;;;;;8.32;3.72;;;;;;;0.48;28.76;101677.00;5031346;28;20452;-80
2022/03/12 01:06:48;;;;;;;3.95;2.13;;;;;;;0.43;28.30;101678.59;5033305;28;20032;-78
2022/03/12 01:09:13;;;;;;;7.00;3.22;;;;;;;0.53;28.62;101670.19;5020638;28;20033;-79
2022/03/12 01:11:41;;;;;;;5.97;3.17;;;;;;;0.55;28.52;101678.81;5014499;28;20032;-80
2022/03/12 01:14:07;;;;;;;5.30;3.22;;;;;;;0.59;28.32;101672.88;5022124;28;20041;-80
2022/03/12 01:16:35;;;;;;;8.50;3.63;;;;;;;0.54;28.34;101676.19;5012934;28;20402;-81
2022/03/12 01:19:01;;;;;;;7.65;3.17;;;;;;;0.62;28.41;101675.47;5049096;28;20452;-81
2022/03/12 01:21:28;;;;;;;6.35;2.70;;;;;;;0.55;28.31;101683.09;5024260;28;20032;-82
2022/03/12 01:23:54;;;;;;;6.20;3.00;;;;;;;0.43;28.47;101678.59;5037387;28;20075;-80
2022/03/12 01:26:22;;;;;;;8.10;2.80;;;;;;;0.66;28.36;101671.25;5056695;28;20126;-78
2022/03/12 01:28:47;;;;;;;5.07;2.95;;;;;;;0.46;28.35;101670.94;5050429;28;20135;-79
2022/03/12 01:31:14;;;;;;;7.90;3.38;;;;;;;0.70;28.12;101665.28;5082572;28;20403;-83
2022/03/12 01:33:40;;;;;;;9.60;3.88;;;;;;;0.67;27.96;101667.81;5034606;28;20067;-81
2022/03/12 01:36:06;;;;;;;5.82;2.75;;;;;;;0.47;28.19;101667.53;5036385;28;20510;-80
2022/03/12 01:38:35;;;;;;;8.65;3.67;;;;;;;0.29;28.55;101668.13;5027311;28;20047;-80
2022/03/12 01:41:06;;;;;;;7.63;3.13;;;;;;;0.72;28.16;101662.72;5038249;28;20040;-79
2022/03/12 01:43:35;;;;;;;9.57;2.55;;;;;;;0.54;28.29;101671.91;5037927;28;20151;-82
2022/03/12 01:46:01;;;;;;;8.50;3.17;;;;;;;0.68;28.07;101667.84;5037506;28;20025;-77
2022/03/12 01:48:30;;;;;;;9.52;3.28;;;;;;;0.34;28.27;101663.03;5038259;28;20070;-81
2022/03/12 01:50:57;;;;;;;12.10;3.60;;;;;;;0.34;28.03;101661.31;5060869;28;20033;-81
2022/03/12 01:53:26;;;;;;;4.95;2.97;;;;;;;0.38;27.98;101650.25;5039735;28;20231;-80
2022/03/12 01:55:53;;;;;;;4.85;2.72;;;;;;;0.40;27.86;101653.72;5036308;28;20094;-80
2022/03/12 01:58:19;;;;;;;6.38;3.08;;;;;;;0.39;28.04;101657.13;5040330;28;20577;-81
2022/03/12 02:00:47;;;;;;;18.00;3.75;;;;;;;0.36;28.09;101664.78;5020432;28;20446;-80
2022/03/12 02:03:16;;;;;;;7.32;2.88;;;;;;;0.40;27.99;101652.84;5028117;28;20037;-80
2022/03/12 02:05:43;;;;;;;7.30;3.30;;;;;;;0.52;27.68;101645.28;5030831;28;20039;-80
2022/03/12 02:08:13;;;;;;;5.65;2.30;;;;;;;0.22;28.23;101669.72;5040105;28;20037;-82
2022/03/12 02:10:40;;;;;;;5.45;2.92;;;;;;;0.17;28.24;101661.09;5047129;28;20710;-82
2022/03/12 02:13:05;;;;;;;5.03;2.38;;;;;;;0.52;27.78;101663.31;5051358;28;20388;-80
2022/03/12 02:15:32;;;;;;;7.53;2.67;;;;;;;0.20;28.11;101660.25;5036422;28;20605;-80
2022/03/12 02:17:57;;;;;;;4.70;3.13;;;;;;;0.54;27.44;101651.31;5033500;28;20047;-81
2022/03/12 02:20:23;;;;;;;6.93;3.28;;;;;;;0.68;27.50;101649.84;5014289;28;20033;-76
2022/03/12 02:22:53;;;;;;;7.78;3.03;;;;;;;0.40;27.91;101651.13;5051805;28;20636;-80
2022/03/12 02:25:30;;;;;;;3.55;2.33;;;;;;;0.45;27.83;101651.19;5059043;28;20070;-81
2022/03/12 02:27:57;;;;;;;5.90;3.03;;;;;;;0.17;28.24;101645.66;5019777;28;20040;-80
2022/03/12 02:30:34;;;;;;;7.45;3.10;;;;;;;0.23;28.05;101656.03;5042143;28;20064;-81
2022/03/12 02:33:04;;;;;;;7.30;3.15;;;;;;;0.06;28.31;101657.47;5021440;28;20090;-79
2022/03/12 02:35:35;;;;;;;8.13;3.83;;;;;;;-0.03;28.17;101658.19;5037379;28;20094;-81
2022/03/12 02:38:02;;;;;;;7.10;2.93;;;;;;;0.26;28.28;101661.22;5044053;28;20124;-81
2022/03/12 02:40:27;;;;;;;8.57;3.35;;;;;;;-0.06;28.59;101664.97;5023711;28;20375;-83
2022/03/12 02:42:56;;;;;;;4.30;3.22;;;;;;;0.50;27.91;101664.97;5036827;28;20724;-80
2022/03/12 02:45:25;;;;;;;4.72;2.53;;;;;;;0.05;28.74;101660.88;5039830;28;20498;-81
2022/03/12 02:47:50;;;;;;;7.65;2.58;;;;;;;0.09;28.54;101661.78;5058326;28;20077;-79
2022/03/12 02:50:17;;;;;;;10.07;3.63;;;;;;;0.59;27.95;101662.56;5025087;28;20422;-79
2022/03/12 02:52:44;;;;;;;9.80;3.50;;;;;;;-0.01;28.82;101661.66;5041665;28;20469;-80
2022/03/12 02:55:13;;;;;;;15.20;3.33;;;;;;;0.13;28.75;101661.88;5038258;28;20552;-80
2022/03/12 02:57:43;;;;;;;11.52;4.20;;;;;;;0.02;28.56;101671.13;5033613;28;20074;-81
2022/03/12 03:00:11;;;;;;;7.15;2.75;;;;;;;0.12;28.57;101678.13;5036713;28;20044;-77
2022/03/12 03:02:41;;;;;;;4.88;2.53;;;;;;;-0.11;28.53;101667.47;5038190;28;20456;-77
2022/03/12 03:05:23;;;;;;;5.95;3.53;;;;;;;-0.05;28.43;101664.16;5040974;28;20035;-80
2022/03/12 03:07:57;;;;;;;6.35;2.95;;;;;;;-0.03;28.58;101673.59;5024379;28;20108;-80
2022/03/12 03:10:37;;;;;;;5.85;2.47;;;;;;;0.14;28.46;101673.88;5039736;28;20043;-81
2022/03/12 03:13:16;;;;;;;6.30;2.92;;;;;;;-0.02;28.71;101669.31;5011538;28;20043;-81
2022/03/12 03:15:52;;;;;;;6.75;2.95;;;;;;;0.39;28.06;101676.81;5053129;28;20040;-80
2022/03/12 03:18:22;;;;;;;3.92;1.80;;;;;;;0.10;28.35;101673.78;5010150;28;20394;-81
2022/03/12 03:20:49;;;;;;;4.97;3.03;;;;;;;0.32;28.15;101670.72;5034304;28;20497;-81
2022/03/12 03:23:15;;;;;;;8.57;3.60;;;;;;;-0.03;28.60;101678.75;5014227;28;20052;-80
2022/03/12 03:25:40;;;;;;;6.57;3.28;;;;;;;0.29;28.28;101678.41;5016959;28;20028;-80
2022/03/12 03:28:08;;;;;;;8.10;3.35;;;;;;;0.37;28.24;101679.41;5036087;28;20033;-80
2022/03/12 03:30:38;;;;;;;10.27;2.80;;;;;;;0.03;28.63;101677.97;5056260;28;20047;-80
2022/03/12 03:33:09;;;;;;;7.95;3.72;;;;;;;-0.08;28.89;101669.22;5037645;28;20405;-80
2022/03/12 03:35:38;;;;;;;8.10;2.55;;;;;;;-0.00;28.55;101675.34;5040670;28;20032;-81
2022/03/12 03:38:09;;;;;;;5.57;2.78;;;;;;;-0.18;28.96;101676.78;5020253;28;20147;-81
2022/03/12 03:40:35;;;;;;;7.38;2.92;;;;;;;-0.29;28.60;101680.84;5044892;22;20032;-79
2022/03/12 03:43:01;;;;;;;8.98;2.30;;;;;;;-0.51;29.05;101681.31;5038299;28;20497;-79
2022/03/12 03:45:28;;;;;;;8.40;3.20;;;;;;;0.05;28.53;101681.44;5022086;28;20037;-80
2022/03/12 03:47:55;;;;;;;8.80;2.80;;;;;;;-0.46;29.19;101671.97;5034011;28;20033;-81
2022/03/12 03:50:25;;;;;;;4.95;2.20;;;;;;;-0.26;28.83;101680.94;5036259;28;20036;-80
2022/03/12 03:53:02;;;;;;;5.32;2.53;;;;;;;-0.03;28.59;101680.47;5021068;28;20041;-80
2022/03/12 03:55:27;;;;;;;6.57;3.20;;;;;;;-0.16;28.65;101675.09;5010037;28;20064;-80
2022/03/12 03:57:57;;;;;;;5.03;2.95;;;;;;;-0.14;28.68;101670.84;5022735;28;20069;-81
2022/03/12 04:00:24;;;;;;;9.25;2.67;;;;;;;-0.17;28.50;101686.22;5017853;28;20433;-79
2022/03/12 04:03:04;;;;;;;4.15;2.10;;;;;;;-0.13;28.70;101685.41;4999207;28;20045;-80
2022/03/12 04:05:38;;;;;;;5.75;2.60;;;;;;;-0.22;28.63;101682.69;5018770;28;20037;-79
2022/03/12 04:08:07;;;;;;;6.45;3.00;;;;;;;-0.21;28.75;101683.59;5004188;28;20457;-78
2022/03/12 04:10:33;;;;;;;6.35;2.72;;;;;;;-0.08;28.76;101692.34;5006111;28;20310;-78
2022/03/12 04:12:59;;;;;;;4.90;2.85;;;;;;;0.01;28.31;101682.22;5024048;28;20040;-76
2022/03/12 04:15:25;;;;;;;6.10;2.75;;;;;;;-0.02;28.44;101688.19;5023693;28;20136;-80
2022/03/12 04:17:53;;;;;;;4.32;2.60;;;;;;;-0.03;28.34;101683.03;5025479;28;20042;-78
2022/03/12 04:20:22;;;;;;;5.00;1.95;;;;;;;-0.08;28.42;101697.47;5025355;28;20112;-77
2022/03/12 04:22:51;;;;;;;13.05;2.60;;;;;;;-0.15;28.67;101689.69;5023388;28;20411;-79
2022/03/12 04:25:18;;;;;;;8.18;2.50;;;;;;;-0.05;28.34;101695.84;5016772;28;20038;-79
2022/03/12 04:27:44;;;;;;;4.43;2.13;;;;;;;-0.12;28.35;101694.03;4999463;28;20491;-78
2022/03/12 04:30:12;;;;;;;6.00;3.03;;;;;;;0.05;28.25;101691.72;5003779;28;20143;-80
2022/03/12 04:32:39;;;;;;;7.10;2.38;;;;;;;-0.09;28.54;101690.63;5013512;28;20056;-77
2022/03/12 04:35:05;;;;;;;6.70;2.22;;;;;;;-0.07;28.29;101692.38;5047531;28;20096;-77
2022/03/12 04:37:32;;;;;;;4.65;2.05;;;;;;;-0.24;28.58;101693.78;5044346;28;20041;-76
2022/03/12 04:39:58;;;;;;;6.72;2.80;;;;;;;-0.14;28.56;101691.41;5020907;28;20048;-79
2022/03/12 04:42:24;;;;;;;14.88;3.03;;;;;;;-0.02;28.21;101700.16;5024759;28;20037;-79
2022/03/12 04:44:50;;;;;;;9.07;2.88;;;;;;;-0.41;28.77;101703.75;5022110;28;20033;-78
2022/03/12 04:47:19;;;;;;;4.85;2.75;;;;;;;-0.47;29.14;101706.22;5021563;28;20516;-79
2022/03/12 04:49:46;;;;;;;6.97;2.90;;;;;;;-0.19;28.38;101699.84;5016370;28;20699;-79
2022/03/12 04:52:12;;;;;;;5.00;2.63;;;;;;;-0.45;28.94;101707.09;5014625;28;20275;-76
2022/03/12 04:54:37;;;;;;;6.78;2.80;;;;;;;-0.49;28.86;101702.75;5019507;28;20556;-74
2022/03/12 04:57:04;;;;;;;4.20;2.40;;;;;;;-0.30;28.70;101709.97;5000493;28;20132;-79
2022/03/12 04:59:29;;;;;;;9.48;2.65;;;;;;;-0.47;28.79;101711.34;4999644;28;20628;-76
2022/03/12 05:01:57;;;;;;;7.20;2.58;;;;;;;-0.23;28.74;101701.53;5019357;28;20033;-78
2022/03/12 05:04:24;;;;;;;8.98;3.20;;;;;;;-0.34;28.70;101703.03;5018717;28;20384;-78
2022/03/12 05:06:49;;;;;;;7.10;2.50;;;;;;;-0.22;28.95;101703.25;5016007;28;20049;-79
2022/03/12 05:09:15;;;;;;;4.03;2.58;;;;;;;-0.39;28.73;101704.66;5013886;28;20061;-78
2022/03/12 05:11:41;;;;;;;5.07;2.30;;;;;;;-0.18;28.86;101710.19;5019951;28;20504;-79
2022/03/12 05:14:10;;;;;;;6.57;2.83;;;;;;;-0.40;28.81;101711.47;4999725;28;20040;-80
2022/03/12 05:16:36;;;;;;;5.93;2.35;;;;;;;-0.37;28.82;101714.13;5030618;28;20048;-79
2022/03/12 05:19:06;;;;;;;5.88;2.25;;;;;;;-0.28;28.65;101703.16;5008928;28;20409;-80
2022/03/12 05:21:33;;;;;;;6.40;2.43;;;;;;;-0.34;28.79;101710.75;5010294;28;20134;-78
2022/03/12 05:23:58;;;;;;;9.15;2.67;;;;;;;-0.27;28.92;101711.72;5007652;28;20287;-76
2022/03/12 05:26:24;;;;;;;6.28;2.33;;;;;;;-0.72;29.43;101716.00;5020502;28;20037;-77
2022/03/12 05:28:49;;;;;;;5.43;2.70;;;;;;;-0.36;28.88;101714.97;5021115;28;20045;-77
2022/03/12 05:31:16;;;;;;;6.72;2.55;;;;;;;-0.47;28.90;101726.75;5014636;28;20422;-78
2022/03/12 05:33:42;;;;;;;11.88;2.65;;;;;;;-0.31;29.06;101718.50;5019348;28;20065;-77
2022/03/12 05:36:08;;;;;;;7.75;2.50;;;;;;;-0.63;29.61;101723.88;5008708;28;20114;-78
2022/03/12 05:38:37;;;;;;;8.38;3.95;;;;;;;-0.31;28.86;101723.63;5024192;28;20419;-78
2022/03/12 05:41:09;;;;;;;7.38;2.58;;;;;;;-0.65;29.56;101727.25;5007123;28;20402;-77
2022/03/12 05:43:41;;;;;;;5.63;3.20;;;;;;;-0.19;28.90;101729.00;5030828;28;20045;-77
2022/03/12 05:46:07;;;;;;;4.97;2.53;;;;;;;-0.63;29.33;101734.16;5025599;28;20037;-79
2022/03/12 05:48:32;;;;;;;5.80;2.55;;;;;;;-0.33;29.26;101735.56;5022469;28;20389;-78
2022/03/12 05:50:59;;;;;;;5.55;2.45;;;;;;;-0.17;28.86;101737.63;5018000;28;20033;-78
2022/03/12 05:53:25;;;;;;;6.82;2.75;;;;;;;-0.22;28.98;101741.78;5003057;28;20395;-78
2022/03/12 05:55:51;;;;;;;7.57;2.92;;;;;;;-0.32;29.46;101736.47;5016164;28;20410;-79
2022/03/12 05:58:19;;;;;;;5.90;2.85;;;;;;;-0.01;28.88;101743.03;5016097;28;20029;-78
2022/03/12 06:00:47;;;;;;;7.20;2.65;;;;;;;-0.25;29.21;101739.16;5014465;28;20037;-79
2022/03/12 06:03:12;;;;;;;6.47;2.30;;;;;;;-0.06;28.99;101742.06;5000963;28;20037;-80
2022/03/12 06:05:43;;;;;;;15.27;2.85;;;;;;;-0.16;29.18;101744.47;4997558;28;20036;-79
2022/03/12 06:08:21;;;;;;;4.80;2.40;;;;;;;-0.29;29.31;101737.38;5018163;28;20038;-80
2022/03/12 06:10:51;;;;;;;4.70;2.33;;;;;;;-0.06;28.95;101739.50;5015446;28;20040;-79
2022/03/12 06:13:18;;;;;;;4.38;2.05;;;;;;;-0.09;28.96;101739.47;5014997;28;20033;-79
2022/03/12 06:15:45;;;;;;;6.35;2.38;;;;;;;-0.27;29.17;101748.53;5021359;28;20277;-78
2022/03/12 06:18:11;;;;;;;6.80;2.45;;;;;;;-0.19;29.25;101748.69;4999337;28;20083;-80
2022/03/12 06:20:37;;;;;;;6.55;3.13;;;;;;;-0.15;29.27;101741.09;5016034;28;20042;-80
2022/03/12 06:23:04;;;;;;;8.48;2.80;;;;;;;-0.20;29.08;101747.81;5004427;28;20037;-80
2022/03/12 06:25:30;;;;;;;6.30;3.08;;;;;;;-0.26;29.47;101755.44;5000991;28;20457;-79
2022/03/12 06:27:55;;;;;;;9.60;3.47;;;;;;;0.08;29.24;101753.47;5018311;28;20034;-78
2022/03/12 06:30:24;;;;;;;2.78;2.10;;;;;;;-0.16;29.12;101759.03;5023022;28;20037;-80
2022/03/12 06:32:50;;;;;;;9.65;3.20;;;;;;;-0.16;29.43;101757.31;5005018;28;20037;-79
2022/03/12 06:35:17;;;;;;;5.65;2.45;;;;;;;-0.43;29.72;101767.94;5028285;28;20028;-78
2022/03/12 06:37:43;;;;;;;4.68;2.20;;;;;;;-0.09;29.28;101765.16;5017686;28;20542;-77
2022/03/12 06:40:14;;;;;;;5.80;3.08;;;;;;;0.03;28.98;101761.13;5004427;28;20092;-78
2022/03/12 06:42:42;;;;;;;7.60;2.05;;;;;;;-0.26;29.24;101762.25;5028616;28;20048;-79
2022/03/12 06:45:08;;;;;;;3.03;1.95;;;;;;;-0.27;29.14;101765.69;5015068;28;20550;-79
2022/03/12 06:47:36;;;;;;;4.88;2.28;;;;;;;0.11;28.89;101778.38;4997201;28;20037;-80
2022/03/12 06:50:08;;;;;;;6.22;2.28;;;;;;;-0.08;29.08;101778.03;5035199;28;20014;-77
2022/03/12 06:52:34;;;;;;;8.38;2.28;;;;;;;0.18;28.58;101781.06;5051819;28;20025;-76
2022/03/12 06:55:00;;;;;;;3.47;2.10;;;;;;;0.34;28.73;101786.47;5027182;28;20052;-78
2022/03/12 06:57:26;;;;;;;6.43;2.65;;;;;;;1.08;27.75;101789.38;5031485;28;20061;-79
2022/03/12 06:59:51;;;;;;;4.50;1.80;;;;;;;1.03;27.43;101788.41;5033578;28;20410;-79
2022/03/12 07:02:17;;;;;;;5.40;2.75;;;;;;;1.15;27.07;101784.28;5028277;28;20481;-79
2022/03/12 07:04:42;;;;;;;6.53;2.38;;;;;;;1.09;27.23;101796.25;5004011;28;20378;-78
2022/03/12 07:07:08;;;;;;;6.07;2.47;;;;;;;1.09;27.55;101796.25;5024669;28;20056;-79
2022/03/12 07:09:36;;;;;;;6.32;2.05;;;;;;;1.51;27.00;101794.25;5017050;28;20065;-78
2022/03/12 07:12:03;;;;;;;5.45;2.97;;;;;;;1.59;26.98;101789.19;5025017;28;20048;-79
2022/03/12 07:14:30;;;;;;;9.98;2.83;;;;;;;1.31;26.91;101786.25;5014589;28;20405;-79
2022/03/12 07:16:56;;;;;;;5.82;2.58;;;;;;;1.48;26.94;101789.94;5027890;22;20037;-79
2022/03/12 07:19:22;;;;;;;8.30;2.88;;;;;;;2.38;26.03;101783.13;5039003;28;20068;-77
2022/03/12 07:21:49;;;;;;;3.78;2.08;;;;;;;3.02;25.21;101799.09;5039545;28;20041;-79
2022/03/12 07:24:16;;;;;;;7.28;2.88;;;;;;;2.44;25.63;101791.78;5028453;23;20068;-79
2022/03/12 07:26:42;;;;;;;5.88;2.67;;;;;;;1.90;26.29;101796.41;5022271;28;20094;-79
2022/03/12 07:29:07;;;;;;;7.35;2.40;;;;;;;2.18;26.42;101804.47;5040458;28;20513;-79
2022/03/12 07:31:34;;;;;;;4.82;1.95;;;;;;;2.10;26.15;101795.78;5028176;28;20449;-78
2022/03/12 07:33:59;;;;;;;7.80;2.95;;;;;;;3.51;24.67;101803.69;5020756;28;20041;-79
2022/03/12 07:36:25;;;;;;;9.07;3.15;;;;;;;3.49;24.73;101802.81;5027298;28;20339;-79
2022/03/12 07:38:50;;;;;;;7.68;3.13;;;;;;;3.34;24.71;101803.63;5036755;28;20104;-79
2022/03/12 07:41:16;;;;;;;5.95;2.42;;;;;;;3.37;24.63;101807.09;5038485;28;20040;-77
2022/03/12 07:43:42;;;;;;;7.45;2.83;;;;;;;3.32;24.49;101820.84;5038883;28;20041;-79
2022/03/12 07:46:07;;;;;;;9.35;2.92;;;;;;;3.55;24.47;101808.03;5019900;28;20028;-79
2022/03/12 07:48:33;;;;;;;5.00;2.72;;;;;;;3.97;23.91;101812.47;5020087;28;20462;-79
2022/03/12 07:51:00;;;;;;;9.70;2.40;;;;;;;4.81;23.00;101808.22;5036687;28;20126;-80
2022/03/12 07:53:26;;;;;;;6.60;2.90;;;;;;;5.49;22.31;101801.19;5036183;28;20114;-78
2022/03/12 07:55:52;;;;;;;4.43;2.67;;;;;;;5.91;21.47;101801.88;5019100;28;20152;-80
2022/03/12 07:58:18;;;;;;;5.68;2.72;;;;;;;6.37;21.19;101811.09;5036530;28;20044;-79
2022/03/12 08:00:44;;;;;;;6.32;3.25;;;;;;;6.12;21.12;101810.38;5019300;28;20115;-78
2022/03/12 08:03:09;;;;;;;5.00;2.92;;;;;;;7.18;20.58;101807.78;5018960;28;20139;-79
2022/03/12 08:05:35;;;;;;;4.75;2.80;;;;;;;7.59;20.31;101806.47;5001673;28;20477;-78
2022/03/12 08:08:02;;;;;;;6.30;3.30;;;;;;;7.33;20.56;101806.72;5021029;28;20115;-78
2022/03/12 08:10:28;;;;;;;10.70;3.40;;;;;;;7.55;19.74;101806.50;5033504;28;20036;-80
2022/03/12 08:12:54;;;;;;;5.15;3.17;;;;;;;6.52;20.48;101815.34;5028354;28;20319;-77
2022/03/12 08:15:20;;;;;;;6.00;2.72;;;;;;;6.43;21.00;101817.13;5012474;28;20033;-78
2022/03/12 08:17:47;;;;;;;6.57;2.33;;;;;;;5.53;22.57;101815.03;5040382;28;20087;-80
2022/03/12 08:20:14;;;;;;;6.68;3.03;;;;;;;5.02;23.16;101815.16;5018198;28;20103;-77
2022/03/12 08:22:45;;;;;;;8.32;3.42;;;;;;;4.45;23.66;101812.53;5027645;28;20081;-80
2022/03/12 08:25:12;;;;;;;3.97;2.10;;;;;;;4.21;24.29;101803.91;5045691;28;20021;-80
2022/03/12 08:27:38;;;;;;;8.40;2.92;;;;;;;3.78;24.52;101805.53;5041265;28;20036;-79
2022/03/12 08:30:07;;;;;;;6.32;2.72;;;;;;;4.27;24.53;101807.34;5022570;28;20637;-78
2022/03/12 08:32:34;;;;;;;6.88;2.88;;;;;;;5.58;23.22;101805.47;5040966;28;20070;-78
2022/03/12 08:35:00;;;;;;;5.90;2.65;;;;;;;5.56;22.90;101813.25;5032759;28;20036;-79
2022/03/12 08:37:26;;;;;;;5.78;2.80;;;;;;;6.25;22.07;101806.84;5046533;28;20056;-79
2022/03/12 08:39:51;;;;;;;4.90;2.47;;;;;;;6.12;22.59;101812.97;5040217;28;20037;-78
2022/03/12 08:42:17;;;;;;;5.60;2.90;;;;;;;5.27;22.91;101817.69;5045764;28;20028;-80
2022/03/12 08:44:42;;;;;;;9.25;2.97;;;;;;;4.66;24.22;101816.88;5040227;28;20041;-77
2022/03/12 08:47:08;;;;;;;5.38;2.85;;;;;;;3.59;25.18;101820.97;5026127;28;20067;-78
2022/03/12 08:49:35;;;;;;;6.78;2.92;;;;;;;3.67;25.45;101825.31;5029680;28;20273;-80
2022/03/12 08:52:03;;;;;;;7.35;3.55;;;;;;;3.73;25.75;101827.91;5040694;28;20029;-81
2022/03/12 08:54:28;;;;;;;10.18;3.65;;;;;;;4.22;25.40;101821.16;5040213;28;20091;-79
2022/03/12 08:56:54;;;;;;;4.68;2.67;;;;;;;4.50;25.22;101822.91;5024433;28;20040;-77
2022/03/12 08:59:19;;;;;;;5.43;2.70;;;;;;;4.96;25.21;101823.78;5022515;28;20040;-79
2022/03/12 09:01:46;;;;;;;4.85;2.75;;;;;;;5.06;24.86;101824.66;5024983;28;20045;-77
2022/03/12 09:04:12;;;;;;;6.55;2.90;;;;;;;5.11;24.42;101829.81;5027652;28;20061;-78
2022/03/12 09:06:38;;;;;;;7.72;2.63;;;;;;;5.72;23.75;101821.84;5064332;28;20029;-79
2022/03/12 09:09:04;;;;;;;6.22;2.53;;;;;;;5.61;23.89;101827.09;5047741;28;20040;-78
2022/03/12 09:11:30;;;;;;;4.75;3.08;;;;;;;5.86;23.74;101814.00;5045647;28;20040;-78
2022/03/12 09:13:56;;;;;;;8.77;2.95;;;;;;;6.52;23.28;101817.94;5041818;28;20041;-78
2022/03/12 09:16:22;;;;;;;4.10;3.00;;;;;;;7.85;22.02;101816.53;5023018;28;20032;-77
2022/03/12 09:18:48;;;;;;;3.65;2.42;;;;;;;7.67;21.72;101817.63;5047175;28;20474;-78
2022/03/12 09:21:15;;;;;;;8.48;3.25;;;;;;;7.43;21.95;101825.72;5042017;28;20048;-78
2022/03/12 09:23:40;;;;;;;4.55;3.30;;;;;;;7.63;21.96;101821.16;5024363;28;20506;-78
2022/03/12 09:26:06;;;;;;;5.25;2.30;;;;;;;8.18;21.52;101826.47;5025039;28;20029;-78
2022/03/12 09:28:31;;;;;;;5.28;2.67;;;;;;;8.67;20.29;101825.72;5039606;28;20052;-78
2022/03/12 09:30:58;;;;;;;6.18;2.78;;;;;;;8.88;20.82;101825.38;5028916;28;20045;-78
2022/03/12 09:33:24;;;;;;;7.72;2.72;;;;;;;9.48;20.02;101820.78;5025065;28;20048;-78
2022/03/12 09:35:55;;;;;;;3.97;2.13;;;;;;;9.54;18.94;101821.53;5023633;28;20420;-78
2022/03/12 09:38:22;;;;;;;12.35;3.47;;;;;;;8.71;20.25;101823.06;5024254;28;20048;-79
2022/03/12 09:40:48;;;;;;;4.85;2.50;;;;;;;8.66;19.82;101827.47;5020302;28;20047;-77
2022/03/12 09:43:13;;;;;;;7.35;3.30;;;;;;;7.98;20.99;101825.03;5042170;28;20044;-78
2022/03/12 09:45:39;;;;;;;6.60;4.10;;;;;;;8.23;20.53;101837.72;5008950;28;20064;-76
2022/03/12 09:48:05;;;;;;;5.75;3.10;;;;;;;8.81;20.56;101836.81;5041075;28;20040;-78
2022/03/12 09:50:31;;;;;;;5.35;2.92;;;;;;;9.03;19.92;101844.22;5009047;28;20541;-77
2022/03/12 09:52:59;;;;;;;5.95;2.78;;;;;;;9.47;20.25;101829.50;5020582;28;20509;-79
2022/03/12 09:55:24;;;;;;;5.07;3.25;;;;;;;9.00;20.58;101821.69;5045965;28;20421;-79
2022/03/12 09:57:50;;;;;;;5.18;3.58;;;;;;;8.95;21.06;101823.53;5033537;28;20048;-79
2022/03/12 10:00:18;;;;;;;8.23;3.03;;;;;;;9.22;20.38;101822.16;5039012;28;20387;-77
2022/03/12 10:02:44;;;;;;;7.85;3.38;;;;;;;9.94;20.21;101812.84;5033268;28;20045;-79
2022/03/12 10:05:13;;;;;;;5.28;3.10;;;;;;;10.80;19.06;101816.00;5024897;28;20648;-77
2022/03/12 10:07:42;;;;;;;5.78;3.03;;;;;;;9.89;19.65;101816.47;5035611;28;20111;-79
2022/03/12 10:10:17;;;;;;;11.05;3.25;;;;;;;8.95;20.94;101824.38;5039704;28;20090;-77
2022/03/12 10:12:46;;;;;;;8.43;3.13;;;;;;;9.32;21.38;101821.09;5025571;28;20040;-78
2022/03/12 10:15:14;;;;;;;10.15;3.25;;;;;;;9.49;21.65;101818.13;5002531;28;20185;-77
2022/03/12 10:17:40;;;;;;;7.03;3.40;;;;;;;10.02;20.51;101820.53;5038400;28;20065;-77
2022/03/12 10:20:10;;;;;;;6.10;3.42;;;;;;;9.70;21.23;101806.41;5039729;28;20186;-79
2022/03/12 10:22:41;;;;;;;5.57;3.53;;;;;;;9.89;20.65;101819.94;5043719;28;20125;-78
2022/03/12 10:25:08;;;;;;;10.10;3.65;;;;;;;9.39;21.35;101814.00;5030250;28;20110;-76
2022/03/12 10:27:34;;;;;;;8.93;3.03;;;;;;;9.79;21.65;101808.84;5044226;28;20669;-80
2022/03/12 10:30:00;;;;;;;6.95;3.63;;;;;;;10.60;20.52;101820.91;5031302;28;20048;-77
2022/03/12 10:32:28;;;;;;;9.00;3.40;;;;;;;11.03;21.34;101820.66;5043001;28;20071;-79
2022/03/12 10:34:59;;;;;;;6.50;3.05;;;;;;;11.12;19.84;101823.94;5038847;28;20450;-78
2022/03/12 10:37:31;;;;;;;6.88;3.40;;;;;;;10.78;20.05;101824.78;5029598;28;20037;-81
2022/03/12 10:40:06;;;;;;;;;;;;;;;11.23;20.40;101812.25;5025022;28;20041;-79
2022/03/12 10:42:32;;;;;;;6.47;3.38;;;;;;;11.43;20.43;101811.69;5046308;28;19920;-76
2022/03/12 10:45:09;;;;;;;5.88;2.97;;;;;;;11.77;20.73;101815.09;5051095;28;20373;-80
2022/03/12 10:47:40;;;;;;;9.00;3.20;;;;;;;11.80;20.12;101810.66;5044017;28;20060;-79
2022/03/12 10:50:11;;;;;;;5.50;3.30;;;;;;;11.52;20.98;101814.97;5033328;28;20032;-79
2022/03/12 10:52:46;;;;;;;5.00;3.28;;;;;;;11.38;20.81;101813.59;5037507;28;20048;-79
2022/03/12 10:55:33;;;;;;;5.90;3.80;;;;;;;11.86;20.98;101823.56;5029110;28;20025;-78
2022/03/12 10:58:06;;;;;;;5.43;3.20;;;;;;;11.68;21.46;101818.84;5045209;28;20112;-78
2022/03/12 11:00:37;;;;;;;8.70;4.03;;;;;;;11.51;21.77;101821.09;5016888;28;20029;-76
2022/03/12 11:03:05;;;;;;;6.15;3.75;;;;;;;11.97;21.28;101822.38;5030399;28;20122;-78
2022/03/12 11:05:34;;;;;;;5.50;3.80;;;;;;;12.43;21.58;101831.41;5026714;28;20047;-77
2022/03/12 11:08:19;;;;;;;6.07;3.30;;;;;;;12.90;20.62;101826.38;5026654;28;20037;-79
2022/03/12 11:10:50;;;;;;;4.85;3.25;;;;;;;12.70;20.82;101835.75;5046204;28;20037;-79
2022/03/12 11:13:51;;;;;;;7.20;4.05;;;;;;;12.45;21.63;101829.59;5028487;28;20416;-76
2022/03/12 11:16:24;;;;;;;4.70;3.22;;;;;;;12.28;21.75;101830.97;5025472;28;20048;-76
2022/03/12 11:18:52;;;;;;;7.50;3.85;;;;;;;12.31;21.93;101829.19;5037623;28;20040;-77
2022/03/12 11:21:30;;;;;;;5.78;3.85;;;;;;;12.07;22.98;101829.91;5052573;28;20115;-77
2022/03/12 11:23:59;;;;;;;7.38;3.72;;;;;;;13.16;21.19;101827.19;5048611;28;20171;-78
2022/03/12 11:26:26;;;;;;;6.60;3.83;;;;;;;12.95;21.38;101834.91;5038899;28;20164;-76
2022/03/12 11:28:57;;;;;;;4.47;3.33;;;;;;;13.26;21.69;101842.56;5048280;28;20100;-76
2022/03/12 11:31:46;;;;;;;8.50;3.72;;;;;;;13.78;21.71;101833.69;5034569;28;20041;-79
2022/03/12 11:34:25;;;;;;;8.23;4.97;;;;;;;13.79;21.83;101838.06;5035130;28;20308;-79
2022/03/12 11:36:56;;;;;;;5.03;4.00;;;;;;;13.86;21.23;101836.91;5049543;28;20037;-78
2022/03/12 11:39:31;;;;;;;4.53;3.22;;;;;;;14.04;21.06;101833.53;5032125;28;20071;-78
2022/03/12 11:42:11;;;;;;;9.55;4.82;;;;;;;14.00;21.49;101842.47;5015800;28;20052;-78
2022/03/12 11:44:39;;;;;;;6.00;3.83;;;;;;;14.05;21.70;101834.41;5036120;28;20049;-79
2022/03/12 11:47:05;;;;;;;7.40;4.55;;;;;;;14.10;20.93;101837.72;5031968;28;20287;-80
2022/03/12 11:49:32;;;;;;;6.93;3.67;;;;;;;13.74;22.23;101835.56;5035357;28;20025;-80
2022/03/12 11:51:59;;;;;;;6.32;4.47;;;;;;;13.06;22.88;101835.41;5035918;28;20147;-80
2022/03/12 11:54:25;;;;;;;5.93;4.10;;;;;;;13.82;22.21;101830.91;5047402;28;20880;-81
2022/03/12 11:56:51;;;;;;;5.88;4.20;;;;;;;13.85;23.08;101836.06;5044252;28;20043;-81
2022/03/12 11:59:18;;;;;;;7.30;3.97;;;;;;;14.05;22.37;101839.66;5013692;28;20102;-78
2022/03/12 12:02:01;;;;;;;5.85;3.83;;;;;;;14.08;22.67;101835.13;5029297;28;20037;-80
2022/03/12 12:04:30;;;;;;;8.32;4.30;;;;;;;14.42;21.77;101839.06;5029456;28;20064;-80
2022/03/12 12:06:55;;;;;;;5.47;3.92;;;;;;;14.75;21.19;101835.97;5032008;28;20044;-78
2022/03/12 12:09:21;;;;;;;5.43;3.72;;;;;;;14.84;21.65;101832.09;5050334;28;20040;-78
2022/03/12 12:11:46;;;;;;;6.18;4.10;;;;;;;15.34;20.94;101829.03;5032284;28;20098;-79
2022/03/12 12:14:12;;;;;;;9.45;3.85;;;;;;;14.84;21.94;101832.09;5054645;28;20045;-77
2022/03/12 12:16:37;;;;;;;6.82;3.15;;;;;;;14.90;22.09;101831.78;5051923;28;20040;-78